Madeline — WDF2406 — position and weather

sailwx.info

Track history (hours):
 
Tides and Currents Weather Stations Pressure Air Temp Water Temp Dewpoint Dewpoint Depression Visibility Wind Speed Wind Dir Waves Ship Positions

Madeline

Owner: Enterprise Marine Services, LLC, San Antonio, TX. More information available from US FCC via Universal Licensing System and Coast Guard Vessel Documentation Center.

Last reported at 2018-Apr-18 14:02 UTC. Time now 2018-Apr-21 00:08 UTC.
Position N 31°42' W 091°24'.

Length 24 m; draft 3 m.

Type: Ship (hazmat cat B). MMSI: 367350460.

Date/timePositionNaut miles runAvg speedWind from/ knotsBaromVisibWave heightAir tempDewpointWater temp
2018-Apr-18 14:02N 31°42' W 091°24'0 6.6
2018-Apr-18 13:58N 31°42' W 091°24'6 7.6
2018-Apr-18 13:13N 31°47' W 091°22'23 1.6
2018-Apr-17 22:54N 32°06' W 091°06'3 6.5
2018-Apr-17 22:29N 32°07' W 091°03'4 7.7
2018-Apr-17 22:00N 32°10' W 091°00'5 9.7
2018-Apr-17 21:30N 32°15' W 090°59'510.0
2018-Apr-17 21:00N 32°18' W 090°55'4 8.1
2018-Apr-17 20:30N 32°21' W 090°58'5 9.2
2018-Apr-17 20:00N 32°25' W 091°00'711.5
2018-Apr-17 19:25N 32°29' W 091°07'  
Track history (hours):
 
Tides and Currents Weather Stations Pressure Air Temp Water Temp Dewpoint Dewpoint Depression Visibility Wind Speed Wind Dir Waves Ship Positions

Madeline

Owner: Enterprise Marine Services, LLC, San Antonio, TX. More information available from US FCC via Universal Licensing System and Coast Guard Vessel Documentation Center.

Last reported at 2018-Apr-18 14:02 UTC. Time now 2018-Apr-21 00:08 UTC.
Position N 31°42' W 091°24'.

Length 24 m; draft 3 m.

Type: Ship (hazmat cat B). MMSI: 367350460.

Date/timePositionNaut miles runAvg speedWind from/ knotsBaromVisibWave heightAir tempDewpointWater temp
2018-Apr-18 14:02N 31°42' W 091°24'0 6.6
2018-Apr-18 13:58N 31°42' W 091°24'6 7.6
2018-Apr-18 13:13N 31°47' W 091°22'23 1.6
2018-Apr-17 22:54N 32°06' W 091°06'3 6.5
2018-Apr-17 22:29N 32°07' W 091°03'4 7.7
2018-Apr-17 22:00N 32°10' W 091°00'5 9.7
2018-Apr-17 21:30N 32°15' W 090°59'510.0
2018-Apr-17 21:00N 32°18' W 090°55'4 8.1
2018-Apr-17 20:30N 32°21' W 090°58'5 9.2
2018-Apr-17 20:00N 32°25' W 091°00'711.5
2018-Apr-17 19:25N 32°29' W 091°07'  

Dump ship's entire track history